PWSweather.com
Personal Weather Stations
Station Observations
KNCCHINA3
Red Tractor Trail, China Grove, NC 28023

Red Tractor TrailChina Grove, NC 28023

Lat: 35.59751, Lon: -80.60201

Elevation: 800

Station Type: Oregon Scientific WMR 968

http://www.joesweathergarage.com

High Low Average
Temperature 59.3°F15.2°F 29.9°F-1.2°F 41.0°F5.0°F
Dew Point 34.1°F1.2°F 23.4°F-4.8°F 27.4°F-2.6°F
Winds 11.0 mph ENE17.7 mph ENE Calm Calm 2.8 mph 4.5 mph
Wind Gusts 15.6 mph25.1 mph -- 5.2 mph8.4 mph
Humidity 90% 38% 60%
Pressure 30.27 in1025.10 in 30.00 in1015.90 in -
Precipitation 0.00 in0.00 in - -
Hour Temp Dew Point Humidity Winds Wind Gusts Pressure Precip Precip Rate Daily Precip Total
12:02 AM 40.9°F4.9°C 25.1°F-3.8°C 53% 5.0 mph NE8.0 kmh NE 12.0 mph19.3 kmh 30.15 in1021.0 mb 0.00 in0.0 mm 0.00 in0.0 mm 0.00 in0.0 mm
12:07 AM 40.7°F4.8°C 25.3°F-3.7°C 54% 5.9 mph ENE9.5 kmh ENE 10.8 mph17.4 kmh 30.15 in1021.0 mb 0.00 in0.0 mm 0.00 in0.0 mm 0.00 in0.0 mm
12:12 AM 40.5°F4.7°C 25.2°F-3.8°C 54% 5.4 mph NE8.7 kmh NE 7.6 mph12.2 kmh 30.15 in1021.0 mb 0.00 in0.0 mm 0.00 in0.0 mm 0.00 in0.0 mm
12:17 AM 40.2°F4.6°C 24.9°F-3.9°C 54% 5.3 mph NE8.5 kmh NE 7.6 mph12.2 kmh 30.15 in1021.0 mb 0.00 in0.0 mm 0.00 in0.0 mm 0.00 in0.0 mm
12:22 AM 40.2°F4.6°C 25.3°F-3.7°C 55% 7.1 mph NE11.4 kmh NE 8.6 mph13.8 kmh 30.15 in1021.0 mb 0.00 in0.0 mm 0.00 in0.0 mm 0.00 in0.0 mm
12:27 AM 40.2°F4.6°C 25.3°F-3.7°C 55% 7.6 mph ENE12.2 kmh ENE 9.0 mph14.5 kmh 30.15 in1021.0 mb 0.00 in0.0 mm 0.00 in0.0 mm 0.00 in0.0 mm
12:32 AM 40.2°F4.6°C 25.8°F-3.4°C 56% 5.7 mph NE9.2 kmh NE 10.8 mph17.4 kmh 30.15 in1021.0 mb 0.00 in0.0 mm 0.00 in0.0 mm 0.00 in0.0 mm
12:37 AM 39.8°F4.3°C 25.4°F-3.7°C 56% 6.1 mph ENE9.8 kmh ENE 10.8 mph17.4 kmh 30.15 in1021.0 mb 0.00 in0.0 mm 0.00 in0.0 mm 0.00 in0.0 mm
12:43 AM 39.8°F4.3°C 25.4°F-3.7°C 56% 6.3 mph NNE10.1 kmh NNE 9.8 mph15.8 kmh 30.12 in1020.0 mb 0.00 in0.0 mm 0.00 in0.0 mm 0.00 in0.0 mm
12:48 AM 39.6°F4.2°C 25.2°F-3.8°C 56% 5.3 mph ENE8.5 kmh ENE 9.8 mph15.8 kmh 30.12 in1020.0 mb 0.00 in0.0 mm 0.00 in0.0 mm 0.00 in0.0 mm
12:53 AM 39.5°F4.2°C 25.6°F-3.6°C 57% 6.5 mph NE10.5 kmh NE 8.0 mph12.9 kmh 30.12 in1020.0 mb 0.00 in0.0 mm 0.00 in0.0 mm 0.00 in0.0 mm
12:58 AM 42.4°F5.8°C 26.9°F-2.8°C 54% 7.9 mph NNE12.7 kmh NNE 11.2 mph18.0 kmh 30.27 in1025.1 mb 0.00 in0.0 mm 0.00 in0.0 mm 0.00 in0.0 mm
01:03 AM 39.3°F4.1°C 25.4°F-3.7°C 57% 6.4 mph NE10.3 kmh NE 11.2 mph18.0 kmh 30.15 in1021.0 mb 0.00 in0.0 mm 0.00 in0.0 mm 0.00 in0.0 mm
01:08 AM 39.3°F4.1°C 25.4°F-3.7°C 57% 4.7 mph NE7.6 kmh NE 10.8 mph17.4 kmh 30.15 in1021.0 mb 0.00 in0.0 mm 0.00 in0.0 mm 0.00 in0.0 mm
01:14 AM 39.1°F3.9°C 25.2°F-3.8°C 57% 4.1 mph ENE6.6 kmh ENE 9.8 mph15.8 kmh 30.12 in1020.0 mb 0.00 in0.0 mm 0.00 in0.0 mm 0.00 in0.0 mm
01:20 AM 38.7°F3.7°C 24.8°F-4.0°C 57% 4.5 mph NE7.2 kmh NE 8.6 mph13.8 kmh 30.12 in1020.0 mb 0.00 in0.0 mm 0.00 in0.0 mm 0.00 in0.0 mm
01:26 AM 38.6°F3.7°C 25.1°F-3.8°C 58% 5.4 mph NE8.7 kmh NE 7.2 mph11.6 kmh 30.12 in1020.0 mb 0.00 in0.0 mm 0.00 in0.0 mm 0.00 in0.0 mm
01:31 AM 38.6°F3.7°C 25.1°F-3.8°C 58% 4.7 mph NE7.6 kmh NE 7.2 mph11.6 kmh 30.12 in1020.0 mb 0.00 in0.0 mm 0.00 in0.0 mm 0.00 in0.0 mm
01:36 AM 38.4°F3.6°C 25.0°F-3.9°C 58% 4.3 mph NE6.9 kmh NE 7.2 mph11.6 kmh 30.12 in1020.0 mb 0.00 in0.0 mm 0.00 in0.0 mm 0.00 in0.0 mm
01:41 AM 38.2°F3.4°C 25.2°F-3.8°C 59% 4.6 mph NE7.4 kmh NE 6.2 mph10.0 kmh 30.12 in1020.0 mb 0.00 in0.0 mm 0.00 in0.0 mm 0.00 in0.0 mm
01:46 AM 38.0°F3.3°C 25.0°F-3.9°C 59% 5.2 mph NE8.4 kmh NE 6.8 mph10.9 kmh 30.12 in1020.0 mb 0.00 in0.0 mm 0.00 in0.0 mm 0.00 in0.0 mm
01:51 AM 37.8°F3.2°C 24.8°F-4.0°C 59% 3.9 mph NE6.3 kmh NE 6.8 mph10.9 kmh 30.12 in1020.0 mb 0.00 in0.0 mm 0.00 in0.0 mm 0.00 in0.0 mm
01:56 AM 37.8°F3.2°C 24.8°F-4.0°C 59% 2.8 mph NE4.5 kmh NE 6.8 mph10.9 kmh 30.12 in1020.0 mb 0.00 in0.0 mm 0.00 in0.0 mm 0.00 in0.0 mm
02:01 AM 37.7°F3.2°C 24.7°F-4.1°C 59% 3.4 mph ENE5.5 kmh ENE 6.2 mph10.0 kmh 30.09 in1019.0 mb 0.00 in0.0 mm 0.00 in0.0 mm 0.00 in0.0 mm
02:02 AM 42.4°F5.8°C 26.9°F-2.8°C 54% 5.7 mph NNE9.2 kmh NNE 11.2 mph18.0 kmh 30.27 in1025.1 mb 0.00 in0.0 mm 0.00 in0.0 mm 0.00 in0.0 mm
02:06 AM 37.5°F3.1°C 24.9°F-3.9°C 60% 4.9 mph NE7.9 kmh NE 6.2 mph10.0 kmh 30.09 in1019.0 mb 0.00 in0.0 mm 0.00 in0.0 mm 0.00 in0.0 mm
02:11 AM 37.5°F3.1°C 24.9°F-3.9°C 60% 4.9 mph NNE7.9 kmh NNE 6.2 mph10.0 kmh 30.09 in1019.0 mb 0.00 in0.0 mm 0.00 in0.0 mm 0.00 in0.0 mm
02:16 AM 37.1°F2.8°C 24.6°F-4.1°C 60% 3.1 mph ENE5.0 kmh ENE 5.8 mph9.3 kmh 30.12 in1020.0 mb 0.00 in0.0 mm 0.00 in0.0 mm 0.00 in0.0 mm
02:21 AM 36.9°F2.7°C 24.4°F-4.2°C 60% 3.3 mph NE5.3 kmh NE 5.4 mph8.7 kmh 30.12 in1020.0 mb 0.00 in0.0 mm 0.00 in0.0 mm 0.00 in0.0 mm
02:26 AM 36.8°F2.7°C 24.3°F-4.3°C 60% Calm Calm 5.8 mph9.3 kmh 30.12 in1020.0 mb 0.00 in0.0 mm 0.00 in0.0 mm 0.00 in0.0 mm
02:31 AM 36.4°F2.4°C 24.3°F-4.3°C 61% 2.0 mph ENE3.2 kmh ENE 5.8 mph9.3 kmh 30.09 in1019.0 mb 0.00 in0.0 mm 0.00 in0.0 mm 0.00 in0.0 mm
02:36 AM 36.2°F2.3°C 24.1°F-4.4°C 61% Calm Calm 2.2 mph3.5 kmh 30.09 in1019.0 mb 0.00 in0.0 mm 0.00 in0.0 mm 0.00 in0.0 mm
02:41 AM 36.2°F2.3°C 24.1°F-4.4°C 61% 1.8 mph NE2.9 kmh NE 4.0 mph6.4 kmh 30.09 in1019.0 mb 0.00 in0.0 mm 0.00 in0.0 mm 0.00 in0.0 mm
02:43 AM 42.8°F6.0°C 26.7°F-2.9°C 53% 5.4 mph 8.7 kmh 9.0 mph14.5 kmh 30.27 in1025.1 mb 0.00 in0.0 mm 0.00 in0.0 mm 0.00 in0.0 mm
02:46 AM 36.0°F2.2°C 24.3°F-4.3°C 62% 2.3 mph NE3.7 kmh NE 4.0 mph6.4 kmh 30.12 in1020.0 mb 0.00 in0.0 mm 0.00 in0.0 mm 0.00 in0.0 mm
02:51 AM 35.7°F2.1°C 23.6°F-4.7°C 61% Calm Calm 3.2 mph5.1 kmh 30.12 in1020.0 mb 0.00 in0.0 mm 0.00 in0.0 mm 0.00 in0.0 mm
02:56 AM 35.5°F1.9°C 23.4°F-4.8°C 61% Calm Calm 3.2 mph5.1 kmh 30.12 in1020.0 mb 0.00 in0.0 mm 0.00 in0.0 mm 0.00 in0.0 mm
03:01 AM 35.3°F1.8°C 24.0°F-4.4°C 63% Calm Calm -- 30.12 in1020.0 mb 0.00 in0.0 mm 0.00 in0.0 mm 0.00 in0.0 mm
03:07 AM 35.0°F1.7°C 24.1°F-4.4°C 64% Calm Calm -- 30.12 in1020.0 mb 0.00 in0.0 mm 0.00 in0.0 mm 0.00 in0.0 mm
03:12 AM 34.4°F1.3°C 24.3°F-4.3°C 66% Calm Calm -- 30.12 in1020.0 mb 0.00 in0.0 mm 0.00 in0.0 mm 0.00 in0.0 mm
03:17 AM 34.1°F1.2°C 24.4°F-4.2°C 67% Calm Calm -- 30.12 in1020.0 mb 0.00 in0.0 mm 0.00 in0.0 mm 0.00 in0.0 mm
03:22 AM 33.9°F1.1°C 24.2°F-4.3°C 67% Calm Calm -- 30.12 in1020.0 mb 0.00 in0.0 mm 0.00 in0.0 mm 0.00 in0.0 mm
03:27 AM 33.9°F1.1°C 24.2°F-4.3°C 67% Calm Calm -- 30.12 in1020.0 mb 0.00 in0.0 mm 0.00 in0.0 mm 0.00 in0.0 mm
03:31 AM 43.3°F6.3°C 27.7°F-2.4°C 54% 2.8 mph NW4.5 kmh NW 8.0 mph12.9 kmh 30.27 in1025.1 mb 0.00 in0.0 mm 0.00 in0.0 mm 0.00 in0.0 mm
03:32 AM 33.9°F1.1°C 24.5°F-4.2°C 68% 1.8 mph ENE2.9 kmh ENE 3.2 mph5.1 kmh 30.09 in1019.0 mb 0.00 in0.0 mm 0.00 in0.0 mm 0.00 in0.0 mm
03:37 AM 33.9°F1.1°C 24.9°F-3.9°C 69% 3.2 mph NE5.1 kmh NE 4.0 mph6.4 kmh 30.09 in1019.0 mb 0.00 in0.0 mm 0.00 in0.0 mm 0.00 in0.0 mm
03:42 AM 33.9°F1.1°C 25.2°F-3.8°C 70% Calm Calm 4.0 mph6.4 kmh 30.09 in1019.0 mb 0.00 in0.0 mm 0.00 in0.0 mm 0.00 in0.0 mm
03:47 AM 33.9°F1.1°C 25.6°F-3.6°C 71% 2.7 mph NE4.3 kmh NE 3.2 mph5.1 kmh 30.12 in1020.0 mb 0.00 in0.0 mm 0.00 in0.0 mm 0.00 in0.0 mm
03:52 AM 33.9°F1.1°C 25.2°F-3.8°C 70% 2.7 mph NE4.3 kmh NE 3.2 mph5.1 kmh 30.12 in1020.0 mb 0.00 in0.0 mm 0.00 in0.0 mm 0.00 in0.0 mm
03:57 AM 33.9°F1.1°C 25.6°F-3.6°C 71% Calm Calm 3.2 mph5.1 kmh 30.12 in1020.0 mb 0.00 in0.0 mm 0.00 in0.0 mm 0.00 in0.0 mm
04:02 AM 43.5°F6.4°C 27.9°F-2.3°C 54% 5.1 mph NW8.2 kmh NW 6.2 mph10.0 kmh 30.27 in1025.1 mb 0.00 in0.0 mm 0.00 in0.0 mm 0.00 in0.0 mm
04:07 AM 33.5°F0.8°C 25.2°F-3.8°C 71% Calm Calm 2.6 mph4.2 kmh 30.12 in1020.0 mb 0.00 in0.0 mm 0.00 in0.0 mm 0.00 in0.0 mm
04:12 AM 33.5°F0.8°C 25.5°F-3.6°C 72% 2.2 mph NNE3.5 kmh NNE 3.2 mph5.1 kmh 30.12 in1020.0 mb 0.00 in0.0 mm 0.00 in0.0 mm 0.00 in0.0 mm
04:18 AM 33.3°F0.7°C 25.0°F-3.9°C 71% Calm Calm 3.2 mph5.1 kmh 30.09 in1019.0 mb 0.00 in0.0 mm 0.00 in0.0 mm 0.00 in0.0 mm
04:23 AM 33.3°F0.7°C 25.3°F-3.7°C 72% Calm Calm 4.0 mph6.4 kmh 30.09 in1019.0 mb 0.00 in0.0 mm 0.00 in0.0 mm 0.00 in0.0 mm
04:30 AM 33.2°F0.7°C 25.2°F-3.8°C 72% Calm Calm 4.0 mph6.4 kmh 30.12 in1020.0 mb 0.00 in0.0 mm 0.00 in0.0 mm 0.00 in0.0 mm
04:35 AM 33.2°F0.7°C 25.2°F-3.8°C 72% Calm Calm -- 30.12 in1020.0 mb 0.00 in0.0 mm 0.00 in0.0 mm 0.00 in0.0 mm
04:40 AM 33.0°F0.6°C 25.4°F-3.7°C 73% Calm Calm -- 30.12 in1020.0 mb 0.00 in0.0 mm 0.00 in0.0 mm 0.00 in0.0 mm
04:45 AM 32.8°F0.4°C 25.2°F-3.8°C 73% 2.5 mph NE4.0 kmh NE 2.6 mph4.2 kmh 30.12 in1020.0 mb 0.00 in0.0 mm 0.00 in0.0 mm 0.00 in0.0 mm
04:51 AM 33.0°F0.6°C 25.7°F-3.5°C 74% 2.6 mph NNE4.2 kmh NNE 4.0 mph6.4 kmh 30.12 in1020.0 mb 0.00 in0.0 mm 0.00 in0.0 mm 0.00 in0.0 mm
04:54 AM 44.1°F6.7°C 28.0°F-2.2°C 53% 5.2 mph NNW8.4 kmh NNW 7.2 mph11.6 kmh 30.24 in1024.0 mb 0.00 in0.0 mm 0.00 in0.0 mm 0.00 in0.0 mm
04:56 AM 33.2°F0.7°C 25.9°F-3.4°C 74% 3.7 mph NNE6.0 kmh NNE 4.0 mph6.4 kmh 30.12 in1020.0 mb 0.00 in0.0 mm 0.00 in0.0 mm 0.00 in0.0 mm
05:02 AM 33.3°F0.7°C 26.3°F-3.2°C 75% 2.8 mph NNE4.5 kmh NNE 4.0 mph6.4 kmh 30.12 in1020.0 mb 0.00 in0.0 mm 0.00 in0.0 mm 0.00 in0.0 mm
05:07 AM 33.5°F0.8°C 26.5°F-3.1°C 75% 4.2 mph NE6.8 kmh NE 5.4 mph8.7 kmh 30.12 in1020.0 mb 0.00 in0.0 mm 0.00 in0.0 mm 0.00 in0.0 mm
05:13 AM 33.7°F0.9°C 26.4°F-3.1°C 74% 3.5 mph NE5.6 kmh NE 5.4 mph8.7 kmh 30.12 in1020.0 mb 0.00 in0.0 mm 0.00 in0.0 mm 0.00 in0.0 mm
05:18 AM 33.7°F0.9°C 26.0°F-3.3°C 73% Calm Calm 5.0 mph8.0 kmh 30.09 in1019.0 mb 0.00 in0.0 mm 0.00 in0.0 mm 0.00 in0.0 mm
05:24 AM 33.7°F0.9°C 26.0°F-3.3°C 73% 2.7 mph NE4.3 kmh NE 3.2 mph5.1 kmh 30.09 in1019.0 mb 0.00 in0.0 mm 0.00 in0.0 mm 0.00 in0.0 mm
05:29 AM 33.7°F0.9°C 26.0°F-3.3°C 73% 3.8 mph NE6.1 kmh NE 5.0 mph8.0 kmh 30.09 in1019.0 mb 0.00 in0.0 mm 0.00 in0.0 mm 0.00 in0.0 mm
05:35 AM 33.7°F0.9°C 26.0°F-3.3°C 73% 3.4 mph ENE5.5 kmh ENE 5.0 mph8.0 kmh 30.09 in1019.0 mb 0.00 in0.0 mm 0.00 in0.0 mm 0.00 in0.0 mm
05:40 AM 33.9°F1.1°C 26.2°F-3.2°C 73% 2.1 mph ENE3.4 kmh ENE 5.0 mph8.0 kmh 30.09 in1019.0 mb 0.00 in0.0 mm 0.00 in0.0 mm 0.00 in0.0 mm
05:45 AM 33.7°F0.9°C 26.0°F-3.3°C 73% 1.8 mph ENE2.9 kmh ENE 5.0 mph8.0 kmh 30.12 in1020.0 mb 0.00 in0.0 mm 0.00 in0.0 mm 0.00 in0.0 mm
05:50 AM 33.7°F0.9°C 26.0°F-3.3°C 73% 2.5 mph ENE4.0 kmh ENE 3.2 mph5.1 kmh 30.12 in1020.0 mb 0.00 in0.0 mm 0.00 in0.0 mm 0.00 in0.0 mm
05:55 AM 33.7°F0.9°C 26.0°F-3.3°C 73% 4.7 mph NE7.6 kmh NE 6.2 mph10.0 kmh 30.12 in1020.0 mb 0.00 in0.0 mm 0.00 in0.0 mm 0.00 in0.0 mm
06:00 AM 33.7°F0.9°C 26.0°F-3.3°C 73% 3.7 mph NE6.0 kmh NE 6.2 mph10.0 kmh 30.12 in1020.0 mb 0.00 in0.0 mm 0.00 in0.0 mm 0.00 in0.0 mm
06:05 AM 33.7°F0.9°C 26.4°F-3.1°C 74% 4.6 mph NE7.4 kmh NE 5.4 mph8.7 kmh 30.12 in1020.0 mb 0.00 in0.0 mm 0.00 in0.0 mm 0.00 in0.0 mm
06:10 AM 33.9°F1.1°C 26.6°F-3.0°C 74% 5.4 mph NNE8.7 kmh NNE 6.8 mph10.9 kmh 30.12 in1020.0 mb 0.00 in0.0 mm 0.00 in0.0 mm 0.00 in0.0 mm
06:15 AM 33.9°F1.1°C 26.6°F-3.0°C 74% 4.9 mph NNE7.9 kmh NNE 7.2 mph11.6 kmh 30.12 in1020.0 mb 0.00 in0.0 mm 0.00 in0.0 mm 0.00 in0.0 mm
06:20 AM 33.9°F1.1°C 26.6°F-3.0°C 74% 6.3 mph NNE10.1 kmh NNE 7.6 mph12.2 kmh 30.12 in1020.0 mb 0.00 in0.0 mm 0.00 in0.0 mm 0.00 in0.0 mm
06:25 AM 33.9°F1.1°C 26.2°F-3.2°C 73% 5.8 mph NNE9.3 kmh NNE 7.6 mph12.2 kmh 30.12 in1020.0 mb 0.00 in0.0 mm 0.00 in0.0 mm 0.00 in0.0 mm
06:30 AM 33.9°F1.1°C 26.2°F-3.2°C 73% 4.7 mph NNE7.6 kmh NNE 7.2 mph11.6 kmh 30.12 in1020.0 mb 0.00 in0.0 mm 0.00 in0.0 mm 0.00 in0.0 mm
06:36 AM 33.9°F1.1°C 26.2°F-3.2°C 73% 4.9 mph NNE7.9 kmh NNE 7.2 mph11.6 kmh 30.12 in1020.0 mb 0.00 in0.0 mm 0.00 in0.0 mm 0.00 in0.0 mm
06:41 AM 33.9°F1.1°C 26.2°F-3.2°C 73% 3.6 mph NE5.8 kmh NE 7.2 mph11.6 kmh 30.12 in1020.0 mb 0.00 in0.0 mm 0.00 in0.0 mm 0.00 in0.0 mm
06:47 AM 33.9°F1.1°C 25.9°F-3.4°C 72% 3.7 mph NE6.0 kmh NE 6.8 mph10.9 kmh 30.12 in1020.0 mb 0.00 in0.0 mm 0.00 in0.0 mm 0.00 in0.0 mm
06:52 AM 33.9°F1.1°C 25.9°F-3.4°C 72% 2.8 mph ENE4.5 kmh ENE 5.0 mph8.0 kmh 30.12 in1020.0 mb 0.00 in0.0 mm 0.00 in0.0 mm 0.00 in0.0 mm
06:57 AM 33.9°F1.1°C 25.6°F-3.6°C 71% 4.5 mph NNE7.2 kmh NNE 5.4 mph8.7 kmh 30.12 in1020.0 mb 0.00 in0.0 mm 0.00 in0.0 mm 0.00 in0.0 mm
07:02 AM 33.9°F1.1°C 25.6°F-3.6°C 71% 3.7 mph NNE6.0 kmh NNE 5.4 mph8.7 kmh 30.15 in1021.0 mb 0.00 in0.0 mm 0.00 in0.0 mm 0.00 in0.0 mm
07:07 AM 33.9°F1.1°C 25.6°F-3.6°C 71% 3.6 mph ENE5.8 kmh ENE 5.4 mph8.7 kmh 30.15 in1021.0 mb 0.00 in0.0 mm 0.00 in0.0 mm 0.00 in0.0 mm
07:12 AM 33.9°F1.1°C 25.6°F-3.6°C 71% 1.8 mph ENE2.9 kmh ENE 5.4 mph8.7 kmh 30.15 in1021.0 mb 0.00 in0.0 mm 0.00 in0.0 mm 0.00 in0.0 mm
07:17 AM 33.9°F1.1°C 25.6°F-3.6°C 71% Calm Calm 3.2 mph5.1 kmh 30.15 in1021.0 mb 0.00 in0.0 mm 0.00 in0.0 mm 0.00 in0.0 mm
07:22 AM 33.9°F1.1°C 25.6°F-3.6°C 71% 2.6 mph ENE4.2 kmh ENE 3.2 mph5.1 kmh 30.15 in1021.0 mb 0.00 in0.0 mm 0.00 in0.0 mm 0.00 in0.0 mm
07:27 AM 33.7°F0.9°C 25.4°F-3.7°C 71% 2.3 mph ENE3.7 kmh ENE 4.0 mph6.4 kmh 30.15 in1021.0 mb 0.00 in0.0 mm 0.00 in0.0 mm 0.00 in0.0 mm
07:32 AM 33.7°F0.9°C 25.4°F-3.7°C 71% Calm Calm 4.0 mph6.4 kmh 30.15 in1021.0 mb 0.00 in0.0 mm 0.00 in0.0 mm 0.00 in0.0 mm
07:38 AM 33.7°F0.9°C 25.4°F-3.7°C 71% 2.7 mph ENE4.3 kmh ENE 3.2 mph5.1 kmh 30.15 in1021.0 mb 0.00 in0.0 mm 0.00 in0.0 mm 0.00 in0.0 mm
07:43 AM 33.7°F0.9°C 25.4°F-3.7°C 71% Calm Calm 3.2 mph5.1 kmh 30.15 in1021.0 mb 0.00 in0.0 mm 0.00 in0.0 mm 0.00 in0.0 mm
07:50 AM 33.9°F1.1°C 25.6°F-3.6°C 71% Calm Calm 3.2 mph5.1 kmh 30.18 in1022.0 mb 0.00 in0.0 mm 0.00 in0.0 mm 0.00 in0.0 mm
07:55 AM 33.9°F1.1°C 26.2°F-3.2°C 73% Calm Calm 3.2 mph5.1 kmh 30.18 in1022.0 mb 0.00 in0.0 mm 0.00 in0.0 mm 0.00 in0.0 mm
08:00 AM 33.9°F1.1°C 25.9°F-3.4°C 72% 3.3 mph ENE5.3 kmh ENE 4.0 mph6.4 kmh 30.18 in1022.0 mb 0.00 in0.0 mm 0.00 in0.0 mm 0.00 in0.0 mm
08:05 AM 33.9°F1.1°C 25.9°F-3.4°C 72% 2.7 mph ENE4.3 kmh ENE 4.0 mph6.4 kmh 30.18 in1022.0 mb 0.00 in0.0 mm 0.00 in0.0 mm 0.00 in0.0 mm
08:10 AM 34.2°F1.2°C 26.2°F-3.2°C 72% 3.9 mph NE6.3 kmh NE 5.4 mph8.7 kmh 30.18 in1022.0 mb 0.00 in0.0 mm 0.00 in0.0 mm 0.00 in0.0 mm
08:15 AM 34.4°F1.3°C 26.4°F-3.1°C 72% 3.7 mph NE6.0 kmh NE 5.4 mph8.7 kmh 30.18 in1022.0 mb 0.00 in0.0 mm 0.00 in0.0 mm 0.00 in0.0 mm
08:20 AM 34.8°F1.6°C 26.8°F-2.9°C 72% 4.6 mph NE7.4 kmh NE 5.4 mph8.7 kmh 30.18 in1022.0 mb 0.00 in0.0 mm 0.00 in0.0 mm 0.00 in0.0 mm
08:25 AM 35.0°F1.7°C 27.3°F-2.6°C 73% 4.7 mph NNE7.6 kmh NNE 6.8 mph10.9 kmh 30.18 in1022.0 mb 0.00 in0.0 mm 0.00 in0.0 mm 0.00 in0.0 mm
08:31 AM 35.1°F1.7°C 27.1°F-2.7°C 72% 4.9 mph NE7.9 kmh NE 8.0 mph12.9 kmh 30.18 in1022.0 mb 0.00 in0.0 mm 0.00 in0.0 mm 0.00 in0.0 mm
08:36 AM 35.1°F1.7°C 27.1°F-2.7°C 72% 6.8 mph NNE10.9 kmh NNE 8.0 mph12.9 kmh 30.18 in1022.0 mb 0.00 in0.0 mm 0.00 in0.0 mm 0.00 in0.0 mm
08:41 AM 35.3°F1.8°C 27.2°F-2.7°C 72% 6.0 mph NNE9.7 kmh NNE 9.8 mph15.8 kmh 30.18 in1022.0 mb 0.00 in0.0 mm 0.00 in0.0 mm 0.00 in0.0 mm
08:46 AM 35.3°F1.8°C 26.9°F-2.8°C 71% 4.3 mph NE6.9 kmh NE 9.8 mph15.8 kmh 30.18 in1022.0 mb 0.00 in0.0 mm 0.00 in0.0 mm 0.00 in0.0 mm
08:51 AM 35.3°F1.8°C 26.9°F-2.8°C 71% 5.3 mph NE8.5 kmh NE 8.6 mph13.8 kmh 30.18 in1022.0 mb 0.00 in0.0 mm 0.00 in0.0 mm 0.00 in0.0 mm
08:56 AM 35.5°F1.9°C 27.1°F-2.7°C 71% 2.7 mph NE4.3 kmh NE 8.0 mph12.9 kmh 30.18 in1022.0 mb 0.00 in0.0 mm 0.00 in0.0 mm 0.00 in0.0 mm
09:02 AM 35.9°F2.2°C 27.5°F-2.5°C 71% 4.7 mph NE7.6 kmh NE 7.2 mph11.6 kmh 30.18 in1022.0 mb 0.00 in0.0 mm 0.00 in0.0 mm 0.00 in0.0 mm
09:07 AM 36.2°F2.3°C 27.4°F-2.6°C 70% 5.0 mph NE8.0 kmh NE 7.2 mph11.6 kmh 30.18 in1022.0 mb 0.00 in0.0 mm 0.00 in0.0 mm 0.00 in0.0 mm
09:12 AM 36.6°F2.6°C 27.8°F-2.3°C 70% 5.3 mph NE8.5 kmh NE 10.8 mph17.4 kmh 30.18 in1022.0 mb 0.00 in0.0 mm 0.00 in0.0 mm 0.00 in0.0 mm
09:17 AM 36.9°F2.7°C 27.4°F-2.6°C 68% 2.9 mph ENE4.7 kmh ENE 10.8 mph17.4 kmh 30.18 in1022.0 mb 0.00 in0.0 mm 0.00 in0.0 mm 0.00 in0.0 mm
09:23 AM 37.7°F3.2°C 27.1°F-2.7°C 65% 5.6 mph ENE9.0 kmh ENE 14.8 mph23.8 kmh 30.18 in1022.0 mb 0.00 in0.0 mm 0.00 in0.0 mm 0.00 in0.0 mm
09:28 AM 38.7°F3.7°C 27.6°F-2.4°C 64% 5.3 mph E8.5 kmh E 14.8 mph23.8 kmh 30.18 in1022.0 mb 0.00 in0.0 mm 0.00 in0.0 mm 0.00 in0.0 mm
09:33 AM 38.7°F3.7°C 26.5°F-3.1°C 61% 9.0 mph NE14.5 kmh NE 13.0 mph20.9 kmh 30.18 in1022.0 mb 0.00 in0.0 mm 0.00 in0.0 mm 0.00 in0.0 mm
09:38 AM 39.3°F4.1°C 27.0°F-2.8°C 61% 6.4 mph E10.3 kmh E 13.0 mph20.9 kmh 30.18 in1022.0 mb 0.00 in0.0 mm 0.00 in0.0 mm 0.00 in0.0 mm
09:45 AM 39.8°F4.3°C 27.5°F-2.5°C 61% 5.7 mph NE9.2 kmh NE 9.0 mph14.5 kmh 30.18 in1022.0 mb 0.00 in0.0 mm 0.00 in0.0 mm 0.00 in0.0 mm
09:50 AM 40.2°F4.6°C 27.9°F-2.3°C 61% 6.1 mph E9.8 kmh E 9.0 mph14.5 kmh 30.18 in1022.0 mb 0.00 in0.0 mm 0.00 in0.0 mm 0.00 in0.0 mm
09:55 AM 41.4°F5.2°C 28.6°F-1.9°C 60% 5.4 mph E8.7 kmh E 9.4 mph15.1 kmh 30.18 in1022.0 mb 0.00 in0.0 mm 0.00 in0.0 mm 0.00 in0.0 mm
10:00 AM 42.3°F5.7°C 28.6°F-1.9°C 58% 5.5 mph SE8.9 kmh SE 9.4 mph15.1 kmh 30.18 in1022.0 mb 0.00 in0.0 mm 0.00 in0.0 mm 0.00 in0.0 mm
10:05 AM 43.6°F6.4°C 29.0°F-1.7°C 56% 4.8 mph NE7.7 kmh NE 10.8 mph17.4 kmh 30.18 in1022.0 mb 0.00 in0.0 mm 0.00 in0.0 mm 0.00 in0.0 mm
10:10 AM 44.9°F7.2°C 29.7°F-1.3°C 55% 4.1 mph E6.6 kmh E 10.8 mph17.4 kmh 30.18 in1022.0 mb 0.00 in0.0 mm 0.00 in0.0 mm 0.00 in0.0 mm
10:16 AM 45.9°F7.7°C 30.2°F-1.0°C 54% 5.4 mph ENE8.7 kmh ENE 9.8 mph15.8 kmh 30.21 in1023.0 mb 0.00 in0.0 mm 0.00 in0.0 mm 0.00 in0.0 mm
10:21 AM 46.3°F7.9°C 30.1°F-1.1°C 53% 3.6 mph SE5.8 kmh SE 8.6 mph13.8 kmh 30.21 in1023.0 mb 0.00 in0.0 mm 0.00 in0.0 mm 0.00 in0.0 mm
10:25 AM 44.6°F7.0°C 27.9°F-2.3°C 52% 5.5 mph NNW8.9 kmh NNW 7.2 mph11.6 kmh 30.24 in1024.0 mb 0.00 in0.0 mm 0.00 in0.0 mm 0.00 in0.0 mm
10:26 AM 47.0°F8.3°C 29.3°F-1.5°C 50% 11.0 mph ENE17.7 kmh ENE 15.6 mph25.1 kmh 30.21 in1023.0 mb 0.00 in0.0 mm 0.00 in0.0 mm 0.00 in0.0 mm
10:31 AM 47.2°F8.4°C 30.0°F-1.1°C 51% 5.6 mph E9.0 kmh E 15.6 mph25.1 kmh 30.18 in1022.0 mb 0.00 in0.0 mm 0.00 in0.0 mm 0.00 in0.0 mm
10:37 AM 48.1°F8.9°C 30.3°F-0.9°C 50% 4.4 mph ESE7.1 kmh ESE 7.6 mph12.2 kmh 30.18 in1022.0 mb 0.00 in0.0 mm 0.00 in0.0 mm 0.00 in0.0 mm
10:42 AM 48.5°F9.2°C 30.1°F-1.1°C 49% 6.0 mph E9.7 kmh E 11.2 mph18.0 kmh 30.18 in1022.0 mb 0.00 in0.0 mm 0.00 in0.0 mm 0.00 in0.0 mm
10:47 AM 48.8°F9.3°C 30.4°F-0.9°C 49% 6.8 mph NE10.9 kmh NE 11.2 mph18.0 kmh 30.18 in1022.0 mb 0.00 in0.0 mm 0.00 in0.0 mm 0.00 in0.0 mm
10:52 AM 49.0°F9.4°C 30.6°F-0.8°C 49% 4.5 mph NNE7.2 kmh NNE 10.8 mph17.4 kmh 30.18 in1022.0 mb 0.00 in0.0 mm 0.00 in0.0 mm 0.00 in0.0 mm
10:57 AM 49.5°F9.7°C 30.5°F-0.8°C 48% 4.5 mph NNW7.2 kmh NNW 9.8 mph15.8 kmh 30.18 in1022.0 mb 0.00 in0.0 mm 0.00 in0.0 mm 0.00 in0.0 mm
11:02 AM 51.0°F10.6°C 31.4°F-0.3°C 47% 5.2 mph E8.4 kmh E 8.0 mph12.9 kmh 30.18 in1022.0 mb 0.00 in0.0 mm 0.00 in0.0 mm 0.00 in0.0 mm
11:07 AM 52.1°F11.2°C 32.4°F0.2°C 47% 4.0 mph WSW6.4 kmh WSW 8.0 mph12.9 kmh 30.18 in1022.0 mb 0.00 in0.0 mm 0.00 in0.0 mm 0.00 in0.0 mm
11:12 AM 53.0°F11.7°C 33.2°F0.7°C 47% 4.7 mph SE7.6 kmh SE 7.2 mph11.6 kmh 30.18 in1022.0 mb 0.00 in0.0 mm 0.00 in0.0 mm 0.00 in0.0 mm
11:17 AM 52.6°F11.4°C 32.3°F0.2°C 46% 5.7 mph N9.2 kmh N 11.6 mph18.7 kmh 30.18 in1022.0 mb 0.00 in0.0 mm 0.00 in0.0 mm 0.00 in0.0 mm
11:22 AM 53.0°F11.7°C 32.7°F0.4°C 46% 4.7 mph E7.6 kmh E 11.6 mph18.7 kmh 30.18 in1022.0 mb 0.00 in0.0 mm 0.00 in0.0 mm 0.00 in0.0 mm
11:28 AM 53.7°F12.1°C 32.7°F0.4°C 45% 5.8 mph NNE9.3 kmh NNE 10.8 mph17.4 kmh 30.18 in1022.0 mb 0.00 in0.0 mm 0.00 in0.0 mm 0.00 in0.0 mm
11:33 AM 53.5°F11.9°C 31.4°F-0.3°C 43% 8.0 mph NE12.9 kmh NE 10.8 mph17.4 kmh 30.15 in1021.0 mb 0.00 in0.0 mm 0.00 in0.0 mm 0.00 in0.0 mm
11:38 AM 54.6°F12.6°C 33.0°F0.6°C 44% 5.2 mph SE8.4 kmh SE 9.4 mph15.1 kmh 30.15 in1021.0 mb 0.00 in0.0 mm 0.00 in0.0 mm 0.00 in0.0 mm
11:43 AM 55.8°F13.2°C 34.1°F1.2°C 44% 3.8 mph ESE6.1 kmh ESE 8.6 mph13.8 kmh 30.15 in1021.0 mb 0.00 in0.0 mm 0.00 in0.0 mm 0.00 in0.0 mm
11:48 AM 55.8°F13.2°C 32.9°F0.5°C 42% 9.1 mph SE14.6 kmh SE 12.0 mph19.3 kmh 30.12 in1020.0 mb 0.00 in0.0 mm 0.00 in0.0 mm 0.00 in0.0 mm
11:53 AM 56.0°F13.3°C 33.0°F0.6°C 42% 5.0 mph E8.0 kmh E 12.0 mph19.3 kmh 30.12 in1020.0 mb 0.00 in0.0 mm 0.00 in0.0 mm 0.00 in0.0 mm
11:58 AM 56.2°F13.4°C 33.2°F0.7°C 42% 4.2 mph NNE6.8 kmh NNE 8.6 mph13.8 kmh 30.12 in1020.0 mb 0.00 in0.0 mm 0.00 in0.0 mm 0.00 in0.0 mm
12:03 PM 56.4°F13.6°C 33.4°F0.8°C 42% 5.6 mph ESE9.0 kmh ESE 8.0 mph12.9 kmh 30.12 in1020.0 mb 0.00 in0.0 mm 0.00 in0.0 mm 0.00 in0.0 mm
12:09 PM 57.1°F13.9°C 33.4°F0.8°C 41% 5.8 mph ESE9.3 kmh ESE 9.0 mph14.5 kmh 30.12 in1020.0 mb 0.00 in0.0 mm 0.00 in0.0 mm 0.00 in0.0 mm
12:13 PM 58.0°F14.4°C 33.6°F0.9°C 40% 4.6 mph ENE7.4 kmh ENE 9.0 mph14.5 kmh 30.12 in1020.0 mb 0.00 in0.0 mm 0.00 in0.0 mm 0.00 in0.0 mm
12:18 PM 57.6°F14.2°C 33.2°F0.7°C 40% 3.6 mph S5.8 kmh S 8.0 mph12.9 kmh 30.12 in1020.0 mb 0.00 in0.0 mm 0.00 in0.0 mm 0.00 in0.0 mm
12:24 PM 55.7°F13.2°C 31.5°F-0.3°C 40% 9.1 mph NNE14.6 kmh NNE 11.6 mph18.7 kmh 30.12 in1020.0 mb 0.00 in0.0 mm 0.00 in0.0 mm 0.00 in0.0 mm
12:28 PM 56.6°F13.7°C 32.3°F0.2°C 40% 6.2 mph NE10.0 kmh NE 11.6 mph18.7 kmh 30.12 in1020.0 mb 0.00 in0.0 mm 0.00 in0.0 mm 0.00 in0.0 mm
12:34 PM 56.6°F13.7°C 32.3°F0.2°C 40% 3.4 mph E5.5 kmh E 8.6 mph13.8 kmh 30.12 in1020.0 mb 0.00 in0.0 mm 0.00 in0.0 mm 0.00 in0.0 mm
12:38 PM 57.1°F13.9°C 32.8°F0.4°C 40% 4.9 mph E7.9 kmh E 6.8 mph10.9 kmh 30.12 in1020.0 mb 0.00 in0.0 mm 0.00 in0.0 mm 0.00 in0.0 mm
12:43 PM 57.3°F14.1°C 32.3°F0.2°C 39% 4.8 mph ENE7.7 kmh ENE 6.8 mph10.9 kmh 30.12 in1020.0 mb 0.00 in0.0 mm 0.00 in0.0 mm 0.00 in0.0 mm
12:49 PM 59.3°F15.2°C 34.1°F1.2°C 39% 4.4 mph E7.1 kmh E 6.2 mph10.0 kmh 30.12 in1020.0 mb 0.00 in0.0 mm 0.00 in0.0 mm 0.00 in0.0 mm
12:54 PM 58.0°F14.4°C 33.0°F0.6°C 39% 2.5 mph ENE4.0 kmh ENE 9.4 mph15.1 kmh 30.12 in1020.0 mb 0.00 in0.0 mm 0.00 in0.0 mm 0.00 in0.0 mm
12:59 PM 57.5°F14.2°C 32.5°F0.3°C 39% 3.2 mph ENE5.1 kmh ENE 9.4 mph15.1 kmh 30.09 in1019.0 mb 0.00 in0.0 mm 0.00 in0.0 mm 0.00 in0.0 mm
01:04 PM 57.5°F14.2°C 31.8°F-0.1°C 38% 6.2 mph SE10.0 kmh SE 8.6 mph13.8 kmh 30.09 in1019.0 mb 0.00 in0.0 mm 0.00 in0.0 mm 0.00 in0.0 mm
01:09 PM 56.6°F13.7°C 31.7°F-0.2°C 39% 5.5 mph SE8.9 kmh SE 8.6 mph13.8 kmh 30.09 in1019.0 mb 0.00 in0.0 mm 0.00 in0.0 mm 0.00 in0.0 mm
01:14 PM 56.0°F13.3°C 31.2°F-0.4°C 39% 4.6 mph ENE7.4 kmh ENE 8.0 mph12.9 kmh 30.06 in1017.9 mb 0.00 in0.0 mm 0.00 in0.0 mm 0.00 in0.0 mm
01:19 PM 55.8°F13.2°C 30.3°F-0.9°C 38% 4.9 mph N7.9 kmh N 8.6 mph13.8 kmh 30.06 in1017.9 mb 0.00 in0.0 mm 0.00 in0.0 mm 0.00 in0.0 mm
01:24 PM 54.4°F12.4°C 29.7°F-1.3°C 39% 5.8 mph NNE9.3 kmh NNE 8.6 mph13.8 kmh 30.06 in1017.9 mb 0.00 in0.0 mm 0.00 in0.0 mm 0.00 in0.0 mm
01:29 PM 55.3°F12.9°C 30.5°F-0.8°C 39% 3.0 mph SSE4.8 kmh SSE 8.6 mph13.8 kmh 30.06 in1017.9 mb 0.00 in0.0 mm 0.00 in0.0 mm 0.00 in0.0 mm
01:34 PM 55.1°F12.8°C 30.4°F-0.9°C 39% 2.7 mph NNE4.3 kmh NNE 5.4 mph8.7 kmh 30.06 in1017.9 mb 0.00 in0.0 mm 0.00 in0.0 mm 0.00 in0.0 mm
01:39 PM 55.3°F12.9°C 30.5°F-0.8°C 39% 4.3 mph SSE6.9 kmh SSE 7.2 mph11.6 kmh 30.06 in1017.9 mb 0.00 in0.0 mm 0.00 in0.0 mm 0.00 in0.0 mm
01:44 PM 54.9°F12.7°C 30.2°F-1.0°C 39% 5.0 mph E8.0 kmh E 7.2 mph11.6 kmh 30.06 in1017.9 mb 0.00 in0.0 mm 0.00 in0.0 mm 0.00 in0.0 mm
01:50 PM 54.6°F12.6°C 29.9°F-1.2°C 39% 4.4 mph ENE7.1 kmh ENE 7.2 mph11.6 kmh 30.06 in1017.9 mb 0.00 in0.0 mm 0.00 in0.0 mm 0.00 in0.0 mm
01:55 PM 54.8°F12.7°C 30.1°F-1.1°C 39% 3.1 mph E5.0 kmh E 6.8 mph10.9 kmh 30.06 in1017.9 mb 0.00 in0.0 mm 0.00 in0.0 mm 0.00 in0.0 mm
02:00 PM 55.5°F13.1°C 30.7°F-0.7°C 39% 5.5 mph E8.9 kmh E 7.2 mph11.6 kmh 30.06 in1017.9 mb 0.00 in0.0 mm 0.00 in0.0 mm 0.00 in0.0 mm
02:05 PM 54.6°F12.6°C 29.9°F-1.2°C 39% 5.2 mph ENE8.4 kmh ENE 7.2 mph11.6 kmh 30.06 in1017.9 mb 0.00 in0.0 mm 0.00 in0.0 mm 0.00 in0.0 mm
02:10 PM 54.2°F12.3°C 29.5°F-1.4°C 39% 3.7 mph SSE6.0 kmh SSE 6.8 mph10.9 kmh 30.06 in1017.9 mb 0.00 in0.0 mm 0.00 in0.0 mm 0.00 in0.0 mm
02:15 PM 53.7°F12.1°C 29.1°F-1.6°C 39% 3.3 mph S5.3 kmh S 6.2 mph10.0 kmh 30.03 in1016.9 mb 0.00 in0.0 mm 0.00 in0.0 mm 0.00 in0.0 mm
02:20 PM 53.3°F11.8°C 29.4°F-1.4°C 40% 5.1 mph N8.2 kmh N 8.0 mph12.9 kmh 30.03 in1016.9 mb 0.00 in0.0 mm 0.00 in0.0 mm 0.00 in0.0 mm
02:25 PM 53.9°F12.2°C 29.3°F-1.5°C 39% 4.3 mph ENE6.9 kmh ENE 8.6 mph13.8 kmh 30.03 in1016.9 mb 0.00 in0.0 mm 0.00 in0.0 mm 0.00 in0.0 mm
02:30 PM 53.7°F12.1°C 29.1°F-1.6°C 39% 2.5 mph SSW4.0 kmh SSW 8.6 mph13.8 kmh 30.06 in1017.9 mb 0.00 in0.0 mm 0.00 in0.0 mm 0.00 in0.0 mm
02:35 PM 53.5°F11.9°C 29.6°F-1.3°C 40% 2.7 mph ENE4.3 kmh ENE 8.0 mph12.9 kmh 30.06 in1017.9 mb 0.00 in0.0 mm 0.00 in0.0 mm 0.00 in0.0 mm
02:40 PM 53.3°F11.8°C 29.4°F-1.4°C 40% 4.8 mph NE7.7 kmh NE 6.8 mph10.9 kmh 30.06 in1017.9 mb 0.00 in0.0 mm 0.00 in0.0 mm 0.00 in0.0 mm
02:45 PM 52.6°F11.4°C 28.7°F-1.8°C 40% 6.2 mph N10.0 kmh N 8.6 mph13.8 kmh 30.06 in1017.9 mb 0.00 in0.0 mm 0.00 in0.0 mm 0.00 in0.0 mm
02:50 PM 52.4°F11.3°C 28.6°F-1.9°C 40% 5.3 mph N8.5 kmh N 8.6 mph13.8 kmh 30.06 in1017.9 mb 0.00 in0.0 mm 0.00 in0.0 mm 0.00 in0.0 mm
02:55 PM 52.8°F11.6°C 28.9°F-1.7°C 40% 2.2 mph NNE3.5 kmh NNE 7.2 mph11.6 kmh 30.06 in1017.9 mb 0.00 in0.0 mm 0.00 in0.0 mm 0.00 in0.0 mm
03:01 PM 52.8°F11.6°C 28.9°F-1.7°C 40% 5.3 mph NNE8.5 kmh NNE 6.2 mph10.0 kmh 30.06 in1017.9 mb 0.00 in0.0 mm 0.00 in0.0 mm 0.00 in0.0 mm
03:06 PM 52.8°F11.6°C 28.9°F-1.7°C 40% 2.9 mph NE4.7 kmh NE 6.2 mph10.0 kmh 30.06 in1017.9 mb 0.00 in0.0 mm 0.00 in0.0 mm 0.00 in0.0 mm
03:11 PM 52.4°F11.3°C 28.6°F-1.9°C 40% 2.8 mph ENE4.5 kmh ENE 6.8 mph10.9 kmh 30.06 in1017.9 mb 0.00 in0.0 mm 0.00 in0.0 mm 0.00 in0.0 mm
03:16 PM 52.1°F11.2°C 28.9°F-1.7°C 41% 3.7 mph NNE6.0 kmh NNE 6.8 mph10.9 kmh 30.06 in1017.9 mb 0.00 in0.0 mm 0.00 in0.0 mm 0.00 in0.0 mm
03:21 PM 52.2°F11.2°C 29.0°F-1.7°C 41% 4.8 mph NNE7.7 kmh NNE 6.2 mph10.0 kmh 30.06 in1017.9 mb 0.00 in0.0 mm 0.00 in0.0 mm 0.00 in0.0 mm
03:26 PM 52.2°F11.2°C 29.0°F-1.7°C 41% 3.1 mph WSW5.0 kmh WSW 5.8 mph9.3 kmh 30.06 in1017.9 mb 0.00 in0.0 mm 0.00 in0.0 mm 0.00 in0.0 mm
03:31 PM 51.9°F11.1°C 28.7°F-1.8°C 41% 3.1 mph WNW5.0 kmh WNW 4.4 mph7.1 kmh 30.03 in1016.9 mb 0.00 in0.0 mm 0.00 in0.0 mm 0.00 in0.0 mm
03:36 PM 51.7°F10.9°C 28.6°F-1.9°C 41% 3.3 mph SE5.3 kmh SE 5.4 mph8.7 kmh 30.03 in1016.9 mb 0.00 in0.0 mm 0.00 in0.0 mm 0.00 in0.0 mm
03:41 PM 51.7°F10.9°C 28.6°F-1.9°C 41% 2.3 mph S3.7 kmh S 5.4 mph8.7 kmh 30.03 in1016.9 mb 0.00 in0.0 mm 0.00 in0.0 mm 0.00 in0.0 mm
03:46 PM 51.5°F10.8°C 28.4°F-2.0°C 41% 3.3 mph NNW5.3 kmh NNW 5.8 mph9.3 kmh 30.03 in1016.9 mb 0.00 in0.0 mm 0.00 in0.0 mm 0.00 in0.0 mm
03:51 PM 51.3°F10.7°C 28.2°F-2.1°C 41% 6.2 mph NNE10.0 kmh NNE 7.2 mph11.6 kmh 30.03 in1016.9 mb 0.00 in0.0 mm 0.00 in0.0 mm 0.00 in0.0 mm
03:56 PM 51.2°F10.7°C 28.1°F-2.2°C 41% 2.5 mph NE4.0 kmh NE 7.2 mph11.6 kmh 30.03 in1016.9 mb 0.00 in0.0 mm 0.00 in0.0 mm 0.00 in0.0 mm
04:01 PM 51.2°F10.7°C 28.7°F-1.8°C 42% 2.5 mph SW4.0 kmh SW 6.2 mph10.0 kmh 30.03 in1016.9 mb 0.00 in0.0 mm 0.00 in0.0 mm 0.00 in0.0 mm
04:06 PM 51.2°F10.7°C 28.7°F-1.8°C 42% 2.7 mph SW4.3 kmh SW 5.4 mph8.7 kmh 30.03 in1016.9 mb 0.00 in0.0 mm 0.00 in0.0 mm 0.00 in0.0 mm
04:11 PM 51.0°F10.6°C 28.5°F-1.9°C 42% 2.5 mph NNE4.0 kmh NNE 5.4 mph8.7 kmh 30.03 in1016.9 mb 0.00 in0.0 mm 0.00 in0.0 mm 0.00 in0.0 mm
04:16 PM 50.4°F10.2°C 28.0°F-2.2°C 42% Calm Calm 4.4 mph7.1 kmh 30.03 in1016.9 mb 0.00 in0.0 mm 0.00 in0.0 mm 0.00 in0.0 mm
04:22 PM 50.4°F10.2°C 28.0°F-2.2°C 42% 3.6 mph NNE5.8 kmh NNE 4.0 mph6.4 kmh 30.03 in1016.9 mb 0.00 in0.0 mm 0.00 in0.0 mm 0.00 in0.0 mm
04:26 PM 50.8°F10.4°C 28.9°F-1.7°C 43% 5.5 mph NNE8.9 kmh NNE 6.8 mph10.9 kmh 30.03 in1016.9 mb 0.00 in0.0 mm 0.00 in0.0 mm 0.00 in0.0 mm
04:32 PM 50.6°F10.3°C 28.8°F-1.8°C 43% 4.1 mph NE6.6 kmh NE 7.2 mph11.6 kmh 30.00 in1015.9 mb 0.00 in0.0 mm 0.00 in0.0 mm 0.00 in0.0 mm
04:37 PM 50.3°F10.2°C 28.5°F-1.9°C 43% 3.4 mph NNE5.5 kmh NNE 7.2 mph11.6 kmh 30.00 in1015.9 mb 0.00 in0.0 mm 0.00 in0.0 mm 0.00 in0.0 mm
04:44 PM 50.1°F10.1°C 28.3°F-2.1°C 43% 4.1 mph 6.6 kmh 5.8 mph9.3 kmh 30.03 in1016.9 mb 0.00 in0.0 mm 0.00 in0.0 mm 0.00 in0.0 mm
04:49 PM 49.7°F9.8°C 28.5°F-1.9°C 44% 2.7 mph N4.3 kmh N 5.4 mph8.7 kmh 30.03 in1016.9 mb 0.00 in0.0 mm 0.00 in0.0 mm 0.00 in0.0 mm
04:54 PM 49.2°F9.6°C 28.1°F-2.2°C 44% Calm Calm 5.0 mph8.0 kmh 30.03 in1016.9 mb 0.00 in0.0 mm 0.00 in0.0 mm 0.00 in0.0 mm
04:59 PM 49.0°F9.4°C 27.9°F-2.3°C 44% 5.2 mph N8.4 kmh N 7.2 mph11.6 kmh 30.03 in1016.9 mb 0.00 in0.0 mm 0.00 in0.0 mm 0.00 in0.0 mm
05:04 PM 48.6°F9.2°C 28.1°F-2.2°C 45% 3.2 mph NNE5.1 kmh NNE 7.2 mph11.6 kmh 30.03 in1016.9 mb 0.00 in0.0 mm 0.00 in0.0 mm 0.00 in0.0 mm
05:09 PM 47.9°F8.8°C 27.4°F-2.6°C 45% Calm Calm 7.2 mph11.6 kmh 30.03 in1016.9 mb 0.00 in0.0 mm 0.00 in0.0 mm 0.00 in0.0 mm
05:18 PM 47.2°F8.4°C 27.3°F-2.6°C 46% 1.8 mph NNE2.9 kmh NNE 3.2 mph5.1 kmh 30.03 in1016.9 mb 0.00 in0.0 mm 0.00 in0.0 mm 0.00 in0.0 mm
05:23 PM 46.8°F8.2°C 27.5°F-2.5°C 47% Calm Calm 2.6 mph4.2 kmh 30.03 in1016.9 mb 0.00 in0.0 mm 0.00 in0.0 mm 0.00 in0.0 mm
05:28 PM 46.5°F8.1°C 27.2°F-2.7°C 47% 1.9 mph NNE3.1 kmh NNE 4.0 mph6.4 kmh 30.03 in1016.9 mb 0.00 in0.0 mm 0.00 in0.0 mm 0.00 in0.0 mm
05:33 PM 45.9°F7.7°C 27.2°F-2.7°C 48% Calm Calm 4.0 mph6.4 kmh 30.03 in1016.9 mb 0.00 in0.0 mm 0.00 in0.0 mm 0.00 in0.0 mm
05:38 PM 45.6°F7.6°C 26.9°F-2.8°C 48% 2.2 mph NNE3.5 kmh NNE 5.0 mph8.0 kmh 30.03 in1016.9 mb 0.00 in0.0 mm 0.00 in0.0 mm 0.00 in0.0 mm
05:43 PM 45.2°F7.3°C 26.6°F-3.0°C 48% Calm Calm 5.0 mph8.0 kmh 30.03 in1016.9 mb 0.00 in0.0 mm 0.00 in0.0 mm 0.00 in0.0 mm
05:45 PM 45.3°F7.4°C 29.1°F-1.6°C 53% 3.9 mph 6.3 kmh 7.2 mph11.6 kmh 30.27 in1025.1 mb 0.00 in0.0 mm 0.00 in0.0 mm 0.00 in0.0 mm
05:49 PM 44.7°F7.1°C 26.1°F-3.3°C 48% Calm Calm -- 30.03 in1016.9 mb 0.00 in0.0 mm 0.00 in0.0 mm 0.00 in0.0 mm
05:54 PM 44.0°F6.7°C 26.5°F-3.1°C 50% Calm Calm -- 30.03 in1016.9 mb 0.00 in0.0 mm 0.00 in0.0 mm 0.00 in0.0 mm
05:59 PM 42.9°F6.1°C 26.0°F-3.3°C 51% Calm Calm -- 30.06 in1017.9 mb 0.00 in0.0 mm 0.00 in0.0 mm 0.00 in0.0 mm
06:04 PM 42.2°F5.7°C 25.8°F-3.4°C 52% Calm Calm -- 30.06 in1017.9 mb 0.00 in0.0 mm 0.00 in0.0 mm 0.00 in0.0 mm
06:10 PM 41.8°F5.4°C 25.4°F-3.7°C 52% Calm Calm -- 30.06 in1017.9 mb 0.00 in0.0 mm 0.00 in0.0 mm 0.00 in0.0 mm
06:15 PM 41.4°F5.2°C 25.5°F-3.6°C 53% Calm Calm -- 30.06 in1017.9 mb 0.00 in0.0 mm 0.00 in0.0 mm 0.00 in0.0 mm
06:21 PM 40.9°F4.9°C 25.5°F-3.6°C 54% Calm Calm -- 30.06 in1017.9 mb 0.00 in0.0 mm 0.00 in0.0 mm 0.00 in0.0 mm
06:25 PM 40.4°F4.7°C 25.5°F-3.6°C 55% Calm Calm -- 30.06 in1017.9 mb 0.00 in0.0 mm 0.00 in0.0 mm 0.00 in0.0 mm
06:31 PM 40.2°F4.6°C 25.3°F-3.7°C 55% Calm Calm -- 30.06 in1017.9 mb 0.00 in0.0 mm 0.00 in0.0 mm 0.00 in0.0 mm
06:35 PM 40.0°F4.4°C 25.1°F-3.8°C 55% Calm Calm -- 30.06 in1017.9 mb 0.00 in0.0 mm 0.00 in0.0 mm 0.00 in0.0 mm
06:40 PM 40.0°F4.4°C 25.6°F-3.6°C 56% Calm Calm -- 30.06 in1017.9 mb 0.00 in0.0 mm 0.00 in0.0 mm 0.00 in0.0 mm
06:45 PM 39.5°F4.2°C 26.0°F-3.3°C 58% 3.4 mph NE5.5 kmh NE 4.4 mph7.1 kmh 30.06 in1017.9 mb 0.00 in0.0 mm 0.00 in0.0 mm 0.00 in0.0 mm
06:50 PM 39.1°F3.9°C 26.0°F-3.3°C 59% 2.6 mph ENE4.2 kmh ENE 4.4 mph7.1 kmh 30.06 in1017.9 mb 0.00 in0.0 mm 0.00 in0.0 mm 0.00 in0.0 mm
06:56 PM 38.9°F3.8°C 25.8°F-3.4°C 59% Calm Calm 4.4 mph7.1 kmh 30.06 in1017.9 mb 0.00 in0.0 mm 0.00 in0.0 mm 0.00 in0.0 mm
06:57 PM 45.7°F7.6°C 28.9°F-1.7°C 52% 4.2 mph NNW6.8 kmh NNW 8.0 mph12.9 kmh 30.27 in1025.1 mb 0.00 in0.0 mm 0.00 in0.0 mm 0.00 in0.0 mm
07:02 PM 38.4°F3.6°C 26.2°F-3.2°C 61% Calm Calm -- 30.06 in1017.9 mb 0.00 in0.0 mm 0.00 in0.0 mm 0.00 in0.0 mm
07:07 PM 38.0°F3.3°C 25.8°F-3.4°C 61% Calm Calm -- 30.06 in1017.9 mb 0.00 in0.0 mm 0.00 in0.0 mm 0.00 in0.0 mm
07:12 PM 37.8°F3.2°C 26.0°F-3.3°C 62% Calm Calm -- 30.06 in1017.9 mb 0.00 in0.0 mm 0.00 in0.0 mm 0.00 in0.0 mm
07:17 PM 37.5°F3.1°C 25.3°F-3.7°C 61% Calm Calm -- 30.09 in1019.0 mb 0.00 in0.0 mm 0.00 in0.0 mm 0.00 in0.0 mm
07:22 PM 37.3°F2.9°C 25.9°F-3.4°C 63% Calm Calm -- 30.09 in1019.0 mb 0.00 in0.0 mm 0.00 in0.0 mm 0.00 in0.0 mm
07:27 PM 37.1°F2.8°C 26.1°F-3.3°C 64% Calm Calm -- 30.09 in1019.0 mb 0.00 in0.0 mm 0.00 in0.0 mm 0.00 in0.0 mm
07:33 PM 36.6°F2.6°C 26.4°F-3.1°C 66% Calm Calm -- 30.09 in1019.0 mb 0.00 in0.0 mm 0.00 in0.0 mm 0.00 in0.0 mm
07:38 PM 36.6°F2.6°C 28.5°F-1.9°C 72% Calm Calm -- 30.09 in1019.0 mb 0.00 in0.0 mm 0.00 in0.0 mm 0.00 in0.0 mm
07:43 PM 36.4°F2.4°C 26.9°F-2.8°C 68% Calm Calm -- 30.06 in1017.9 mb 0.00 in0.0 mm 0.00 in0.0 mm 0.00 in0.0 mm
07:48 PM 36.0°F2.2°C 26.9°F-2.8°C 69% Calm Calm -- 30.06 in1017.9 mb 0.00 in0.0 mm 0.00 in0.0 mm 0.00 in0.0 mm
07:53 PM 36.0°F2.2°C 26.9°F-2.8°C 69% Calm Calm -- 30.06 in1017.9 mb 0.00 in0.0 mm 0.00 in0.0 mm 0.00 in0.0 mm
07:58 PM 35.5°F1.9°C 26.4°F-3.1°C 69% Calm Calm -- 30.06 in1017.9 mb 0.00 in0.0 mm 0.00 in0.0 mm 0.00 in0.0 mm
08:03 PM 35.3°F1.8°C 26.6°F-3.0°C 70% Calm Calm -- 30.06 in1017.9 mb 0.00 in0.0 mm 0.00 in0.0 mm 0.00 in0.0 mm
08:08 PM 35.3°F1.8°C 26.6°F-3.0°C 70% Calm Calm -- 30.06 in1017.9 mb 0.00 in0.0 mm 0.00 in0.0 mm 0.00 in0.0 mm
08:13 PM 35.1°F1.7°C 26.7°F-2.9°C 71% Calm Calm -- 30.06 in1017.9 mb 0.00 in0.0 mm 0.00 in0.0 mm 0.00 in0.0 mm
08:18 PM 35.1°F1.7°C 26.7°F-2.9°C 71% Calm Calm -- 30.06 in1017.9 mb 0.00 in0.0 mm 0.00 in0.0 mm 0.00 in0.0 mm
08:24 PM 34.8°F1.6°C 27.1°F-2.7°C 73% Calm Calm -- 30.06 in1017.9 mb 0.00 in0.0 mm 0.00 in0.0 mm 0.00 in0.0 mm
08:29 PM 34.4°F1.3°C 27.0°F-2.8°C 74% Calm Calm -- 30.03 in1016.9 mb 0.00 in0.0 mm 0.00 in0.0 mm 0.00 in0.0 mm
08:34 PM 34.4°F1.3°C 27.0°F-2.8°C 74% Calm Calm -- 30.03 in1016.9 mb 0.00 in0.0 mm 0.00 in0.0 mm 0.00 in0.0 mm
08:39 PM 34.2°F1.2°C 26.5°F-3.1°C 73% Calm Calm -- 30.03 in1016.9 mb 0.00 in0.0 mm 0.00 in0.0 mm 0.00 in0.0 mm
08:44 PM 34.1°F1.2°C 26.7°F-2.9°C 74% Calm Calm -- 30.03 in1016.9 mb 0.00 in0.0 mm 0.00 in0.0 mm 0.00 in0.0 mm
08:49 PM 33.9°F1.1°C 26.9°F-2.8°C 75% Calm Calm -- 30.03 in1016.9 mb 0.00 in0.0 mm 0.00 in0.0 mm 0.00 in0.0 mm
08:54 PM 33.7°F0.9°C 26.7°F-2.9°C 75% Calm Calm -- 30.03 in1016.9 mb 0.00 in0.0 mm 0.00 in0.0 mm 0.00 in0.0 mm
08:59 PM 33.5°F0.8°C 26.5°F-3.1°C 75% Calm Calm -- 30.06 in1017.9 mb 0.00 in0.0 mm 0.00 in0.0 mm 0.00 in0.0 mm
09:04 PM 33.5°F0.8°C 26.8°F-2.9°C 76% Calm Calm -- 30.06 in1017.9 mb 0.00 in0.0 mm 0.00 in0.0 mm 0.00 in0.0 mm
09:09 PM 33.5°F0.8°C 26.8°F-2.9°C 76% Calm Calm -- 30.06 in1017.9 mb 0.00 in0.0 mm 0.00 in0.0 mm 0.00 in0.0 mm
09:14 PM 33.5°F0.8°C 27.1°F-2.7°C 77% Calm Calm -- 30.06 in1017.9 mb 0.00 in0.0 mm 0.00 in0.0 mm 0.00 in0.0 mm
09:19 PM 33.3°F0.7°C 26.9°F-2.8°C 77% Calm Calm -- 30.06 in1017.9 mb 0.00 in0.0 mm 0.00 in0.0 mm 0.00 in0.0 mm
09:24 PM 33.2°F0.7°C 27.4°F-2.6°C 79% Calm Calm -- 30.06 in1017.9 mb 0.00 in0.0 mm 0.00 in0.0 mm 0.00 in0.0 mm
09:29 PM 33.2°F0.7°C 27.4°F-2.6°C 79% Calm Calm -- 30.03 in1016.9 mb 0.00 in0.0 mm 0.00 in0.0 mm 0.00 in0.0 mm
09:35 PM 33.0°F0.6°C 27.2°F-2.7°C 79% Calm Calm -- 30.03 in1016.9 mb 0.00 in0.0 mm 0.00 in0.0 mm 0.00 in0.0 mm
09:40 PM 33.0°F0.6°C 27.5°F-2.5°C 80% Calm Calm -- 30.03 in1016.9 mb 0.00 in0.0 mm 0.00 in0.0 mm 0.00 in0.0 mm
09:44 PM 32.8°F0.4°C 27.6°F-2.4°C 81% Calm Calm -- 30.09 in1019.0 mb 0.00 in0.0 mm 0.00 in0.0 mm 0.00 in0.0 mm
09:50 PM 32.6°F0.3°C 27.1°F-2.7°C 80% Calm Calm -- 30.09 in1019.0 mb 0.00 in0.0 mm 0.00 in0.0 mm 0.00 in0.0 mm
09:54 PM 32.4°F0.2°C 26.9°F-2.8°C 80% Calm Calm -- 30.09 in1019.0 mb 0.00 in0.0 mm 0.00 in0.0 mm 0.00 in0.0 mm
10:00 PM 32.3°F0.2°C 27.4°F-2.6°C 82% Calm Calm -- 30.06 in1017.9 mb 0.00 in0.0 mm 0.00 in0.0 mm 0.00 in0.0 mm
10:05 PM 32.3°F0.2°C 27.7°F-2.4°C 83% Calm Calm -- 30.06 in1017.9 mb 0.00 in0.0 mm 0.00 in0.0 mm 0.00 in0.0 mm
10:10 PM 32.1°F0.1°C 27.8°F-2.3°C 84% Calm Calm -- 30.06 in1017.9 mb 0.00 in0.0 mm 0.00 in0.0 mm 0.00 in0.0 mm
10:15 PM 31.9°F-0.1°C 27.6°F-2.4°C 84% Calm Calm -- 30.06 in1017.9 mb 0.00 in0.0 mm 0.00 in0.0 mm 0.00 in0.0 mm
10:20 PM 31.7°F-0.2°C 27.4°F-2.6°C 84% Calm Calm -- 30.06 in1017.9 mb 0.00 in0.0 mm 0.00 in0.0 mm 0.00 in0.0 mm
10:26 PM 31.4°F-0.3°C 27.4°F-2.6°C 85% Calm Calm -- 30.06 in1017.9 mb 0.00 in0.0 mm 0.00 in0.0 mm 0.00 in0.0 mm
10:31 PM 31.4°F-0.3°C 27.1°F-2.7°C 84% Calm Calm -- 30.06 in1017.9 mb 0.00 in0.0 mm 0.00 in0.0 mm 0.00 in0.0 mm
10:37 PM 31.4°F-0.3°C 27.1°F-2.7°C 84% Calm Calm -- 30.06 in1017.9 mb 0.00 in0.0 mm 0.00 in0.0 mm 0.00 in0.0 mm
10:42 PM 31.2°F-0.4°C 27.8°F-2.3°C 87% Calm Calm -- 30.06 in1017.9 mb 0.00 in0.0 mm 0.00 in0.0 mm 0.00 in0.0 mm
10:47 PM 31.2°F-0.4°C 27.2°F-2.7°C 85% Calm Calm -- 30.06 in1017.9 mb 0.00 in0.0 mm 0.00 in0.0 mm 0.00 in0.0 mm
10:52 PM 31.2°F-0.4°C 27.2°F-2.7°C 85% Calm Calm -- 30.06 in1017.9 mb 0.00 in0.0 mm 0.00 in0.0 mm 0.00 in0.0 mm
10:58 PM 31.0°F-0.6°C 27.3°F-2.6°C 86% Calm Calm -- 30.06 in1017.9 mb 0.00 in0.0 mm 0.00 in0.0 mm 0.00 in0.0 mm
11:03 PM 31.0°F-0.6°C 27.3°F-2.6°C 86% Calm Calm -- 30.06 in1017.9 mb 0.00 in0.0 mm 0.00 in0.0 mm 0.00 in0.0 mm
11:08 PM 30.6°F-0.8°C 26.9°F-2.8°C 86% Calm Calm -- 30.06 in1017.9 mb 0.00 in0.0 mm 0.00 in0.0 mm 0.00 in0.0 mm
11:13 PM 30.8°F-0.7°C 27.1°F-2.7°C 86% Calm Calm -- 30.06 in1017.9 mb 0.00 in0.0 mm 0.00 in0.0 mm 0.00 in0.0 mm
11:18 PM 30.6°F-0.8°C 27.2°F-2.7°C 87% Calm Calm -- 30.06 in1017.9 mb 0.00 in0.0 mm 0.00 in0.0 mm 0.00 in0.0 mm
11:23 PM 30.6°F-0.8°C 27.2°F-2.7°C 87% Calm Calm -- 30.06 in1017.9 mb 0.00 in0.0 mm 0.00 in0.0 mm 0.00 in0.0 mm
11:28 PM 30.6°F-0.8°C 27.2°F-2.7°C 87% Calm Calm -- 30.06 in1017.9 mb 0.00 in0.0 mm 0.00 in0.0 mm 0.00 in0.0 mm
11:33 PM 30.6°F-0.8°C 27.7°F-2.4°C 89% Calm Calm -- 30.06 in1017.9 mb 0.00 in0.0 mm 0.00 in0.0 mm 0.00 in0.0 mm
11:39 PM 30.3°F-0.9°C 27.7°F-2.4°C 90% Calm Calm -- 30.06 in1017.9 mb 0.00 in0.0 mm 0.00 in0.0 mm 0.00 in0.0 mm
11:44 PM 30.1°F-1.1°C 27.5°F-2.5°C 90% Calm Calm -- 30.06 in1017.9 mb 0.00 in0.0 mm 0.00 in0.0 mm 0.00 in0.0 mm
11:49 PM 29.9°F-1.2°C 27.0°F-2.8°C 89% Calm Calm -- 30.06 in1017.9 mb 0.00 in0.0 mm 0.00 in0.0 mm 0.00 in0.0 mm
11:54 PM 30.1°F-1.1°C 27.2°F-2.7°C 89% Calm Calm -- 30.06 in1017.9 mb 0.00 in0.0 mm 0.00 in0.0 mm 0.00 in0.0 mm
11:59 PM 29.9°F-1.2°C 27.3°F-2.6°C 90% Calm Calm -- 30.06 in1017.9 mb 0.00 in0.0 mm 0.00 in0.0 mm 0.00 in0.0 mm